sensor_id;sensor_type;location;lat;lon;timestamp;pressure;altitude;pressure_sealevel;temperature;humidity
11212;BME280;5663;50.864;12.096;2022-11-12T00:01:01;101072.84;;;6.78;77.07
11212;BME280;5663;50.864;12.096;2022-11-12T00:03:29;101078.00;;;6.79;76.95
11212;BME280;5663;50.864;12.096;2022-11-12T00:05:57;101063.41;;;6.72;77.15
11212;BME280;5663;50.864;12.096;2022-11-12T00:08:25;101078.03;;;6.76;77.01
11212;BME280;5663;50.864;12.096;2022-11-12T00:10:53;101074.56;;;6.77;77.03
11212;BME280;5663;50.864;12.096;2022-11-12T00:13:20;101051.41;;;6.63;77.24
11212;BME280;5663;50.864;12.096;2022-11-12T00:15:48;101068.56;;;6.74;76.90
11212;BME280;5663;50.864;12.096;2022-11-12T00:18:17;101072.03;;;6.71;77.21
11212;BME280;5663;50.864;12.096;2022-11-12T00:20:45;101072.88;;;6.70;76.96
11212;BME280;5663;50.864;12.096;2022-11-12T00:23:13;101069.47;;;6.68;77.22
11212;BME280;5663;50.864;12.096;2022-11-12T00:25:41;101066.91;;;6.65;76.92
11212;BME280;5663;50.864;12.096;2022-11-12T00:28:09;101068.63;;;6.64;76.98
11212;BME280;5663;50.864;12.096;2022-11-12T00:30:38;101068.66;;;6.63;76.96
11212;BME280;5663;50.864;12.096;2022-11-12T00:33:06;101066.91;;;6.62;77.09
11212;BME280;5663;50.864;12.096;2022-11-12T00:35:35;101054.06;;;6.56;77.37
11212;BME280;5663;50.864;12.096;2022-11-12T00:38:03;101060.91;;;6.60;76.82
11212;BME280;5663;50.864;12.096;2022-11-12T00:40:31;101066.94;;;6.60;77.01
11212;BME280;5663;50.864;12.096;2022-11-12T00:42:58;101069.56;;;6.59;76.90
11212;BME280;5663;50.864;12.096;2022-11-12T00:45:26;101062.66;;;6.58;76.97
11212;BME280;5663;50.864;12.096;2022-11-12T00:47:54;101057.47;;;6.58;77.33
11212;BME280;5663;50.864;12.096;2022-11-12T00:50:23;101053.19;;;6.58;77.03
11212;BME280;5663;50.864;12.096;2022-11-12T00:52:53;101061.78;;;6.57;77.08
11212;BME280;5663;50.864;12.096;2022-11-12T00:55:32;101053.19;;;6.57;76.91
11212;BME280;5663;50.864;12.096;2022-11-12T00:58:00;101029.16;;;6.41;77.27
11212;BME280;5663;50.864;12.096;2022-11-12T01:00:28;101053.19;;;6.58;77.05
11212;BME280;5663;50.864;12.096;2022-11-12T01:02:56;101048.88;;;6.59;77.10
11212;BME280;5663;50.864;12.096;2022-11-12T01:05:23;101051.47;;;6.59;77.58
11212;BME280;5663;50.864;12.096;2022-11-12T01:07:53;101045.44;;;6.57;77.33
11212;BME280;5663;50.864;12.096;2022-11-12T01:10:21;101035.16;;;6.48;77.01
11212;BME280;5663;50.864;12.096;2022-11-12T01:12:49;101046.31;;;6.56;77.32
11212;BME280;5663;50.864;12.096;2022-11-12T01:15:18;101005.16;;;6.28;77.50
11212;BME280;5663;50.864;12.096;2022-11-12T01:17:46;101031.75;;;6.43;77.11
11212;BME280;5663;50.864;12.096;2022-11-12T01:20:15;101053.22;;;6.55;77.49
11212;BME280;5663;50.864;12.096;2022-11-12T01:22:45;101043.72;;;6.53;77.18
11212;BME280;5663;50.864;12.096;2022-11-12T01:25:14;101051.50;;;6.53;77.42
11212;BME280;5663;50.864;12.096;2022-11-12T01:27:43;101045.44;;;6.54;77.62
11212;BME280;5663;50.864;12.096;2022-11-12T01:30:12;101020.63;;;6.33;77.52
11212;BME280;5663;50.864;12.096;2022-11-12T01:32:40;101050.66;;;6.51;77.48
11212;BME280;5663;50.864;12.096;2022-11-12T01:35:09;101045.47;;;6.49;77.66
11212;BME280;5663;50.864;12.096;2022-11-12T01:37:37;101038.59;;;6.48;77.85
11212;BME280;5663;50.864;12.096;2022-11-12T01:40:11;101027.38;;;6.49;77.84
11212;BME280;5663;50.864;12.096;2022-11-12T01:42:42;101035.16;;;6.51;77.78
11212;BME280;5663;50.864;12.096;2022-11-12T01:45:13;101029.09;;;6.50;77.68
11212;BME280;5663;50.864;12.096;2022-11-12T01:47:43;101030.84;;;6.51;77.80
11212;BME280;5663;50.864;12.096;2022-11-12T01:50:19;101032.53;;;6.52;77.52
11212;BME280;5663;50.864;12.096;2022-11-12T01:52:53;101028.25;;;6.50;77.42
11212;BME280;5663;50.864;12.096;2022-11-12T01:55:26;101030.81;;;6.50;77.63
11212;BME280;5663;50.864;12.096;2022-11-12T01:58:03;101030.00;;;6.48;77.84
11212;BME280;5663;50.864;12.096;2022-11-12T02:00:32;101026.53;;;6.49;77.68
11212;BME280;5663;50.864;12.096;2022-11-12T02:03:03;101023.13;;;6.47;77.77
11212;BME280;5663;50.864;12.096;2022-11-12T02:05:35;101024.00;;;6.44;77.67
11212;BME280;5663;50.864;12.096;2022-11-12T02:08:05;101031.69;;;6.49;77.87
11212;BME280;5663;50.864;12.096;2022-11-12T02:10:37;101024.84;;;6.45;77.76
11212;BME280;5663;50.864;12.096;2022-11-12T02:13:07;101031.75;;;6.43;77.77
11212;BME280;5663;50.864;12.096;2022-11-12T02:15:54;100963.13;;;6.02;77.73
11212;BME280;5663;50.864;12.096;2022-11-12T02:18:23;101025.75;;;6.39;77.76
11212;BME280;5663;50.864;12.096;2022-11-12T02:20:55;101028.34;;;6.37;77.95
11212;BME280;5663;50.864;12.096;2022-11-12T02:23:25;101027.50;;;6.35;77.57
11212;BME280;5663;50.864;12.096;2022-11-12T02:25:54;101002.59;;;6.22;77.95
11212;BME280;5663;50.864;12.096;2022-11-12T02:28:27;101028.38;;;6.31;77.91
11212;BME280;5663;50.864;12.096;2022-11-12T02:30:57;101030.94;;;6.33;77.57
11212;BME280;5663;50.864;12.096;2022-11-12T02:33:25;101021.53;;;6.27;77.62
11212;BME280;5663;50.864;12.096;2022-11-12T02:35:53;101035.25;;;6.32;77.55
11212;BME280;5663;50.864;12.096;2022-11-12T02:38:21;101030.97;;;6.31;77.58
11212;BME280;5663;50.864;12.096;2022-11-12T02:40:51;101035.28;;;6.29;77.35
11212;BME280;5663;50.864;12.096;2022-11-12T02:43:19;101035.28;;;6.29;77.27
11212;BME280;5663;50.864;12.096;2022-11-12T02:45:47;101033.59;;;6.27;77.24
11212;BME280;5663;50.864;12.096;2022-11-12T02:48:15;101028.41;;;6.25;77.29
11212;BME280;5663;50.864;12.096;2022-11-12T02:50:43;101031.88;;;6.24;77.68
11212;BME280;5663;50.864;12.096;2022-11-12T02:53:10;101030.19;;;6.20;77.49
11212;BME280;5663;50.864;12.096;2022-11-12T02:55:39;101035.34;;;6.17;77.57
11212;BME280;5663;50.864;12.096;2022-11-12T02:58:08;101035.38;;;6.14;77.60
11212;BME280;5663;50.864;12.096;2022-11-12T03:00:36;101033.66;;;6.13;77.72
11212;BME280;5663;50.864;12.096;2022-11-12T03:03:04;101038.81;;;6.13;78.01
11212;BME280;5663;50.864;12.096;2022-11-12T03:05:33;101033.66;;;6.13;77.85
11212;BME280;5663;50.864;12.096;2022-11-12T03:08:03;101007.03;;;6.03;77.94
11212;BME280;5663;50.864;12.096;2022-11-12T03:10:32;101027.63;;;6.14;77.80
11212;BME280;5663;50.864;12.096;2022-11-12T03:13:01;101021.63;;;6.12;77.82
11212;BME280;5663;50.864;12.096;2022-11-12T03:15:31;101002.78;;;5.95;77.91
11212;BME280;5663;50.864;12.096;2022-11-12T03:17:59;101015.63;;;6.07;77.94
11212;BME280;5663;50.864;12.096;2022-11-12T03:20:27;101021.66;;;6.06;78.05
11212;BME280;5663;50.864;12.096;2022-11-12T03:22:57;101026.81;;;6.06;77.90
11212;BME280;5663;50.864;12.096;2022-11-12T03:25:25;100959.84;;;5.69;77.90
11212;BME280;5663;50.864;12.096;2022-11-12T03:27:57;101019.94;;;6.02;77.84
11212;BME280;5663;50.864;12.096;2022-11-12T03:30:25;101007.06;;;5.89;77.88
11212;BME280;5663;50.864;12.096;2022-11-12T03:32:55;101027.72;;;6.00;77.93
11212;BME280;5663;50.864;12.096;2022-11-12T03:35:23;101023.41;;;5.98;77.86
11212;BME280;5663;50.864;12.096;2022-11-12T03:37:52;101001.09;;;5.78;77.67
11212;BME280;5663;50.864;12.096;2022-11-12T03:40:21;101018.25;;;5.91;77.61
11212;BME280;5663;50.864;12.096;2022-11-12T03:42:50;101020.84;;;5.93;77.69
11212;BME280;5663;50.864;12.096;2022-11-12T03:45:20;101014.81;;;5.89;77.71
11212;BME280;5663;50.864;12.096;2022-11-12T03:47:49;101000.28;;;5.72;77.67
11212;BME280;5663;50.864;12.096;2022-11-12T03:50:20;101020.00;;;5.86;77.68
11212;BME280;5663;50.864;12.096;2022-11-12T03:52:49;101021.72;;;5.84;77.57
11212;BME280;5663;50.864;12.096;2022-11-12T03:55:19;101017.44;;;5.83;77.52
11212;BME280;5663;50.864;12.096;2022-11-12T03:57:49;101026.03;;;5.82;77.33
11212;BME280;5663;50.864;12.096;2022-11-12T04:00:17;101025.19;;;5.80;77.08
11212;BME280;5663;50.864;12.096;2022-11-12T04:02:45;101023.50;;;5.76;77.25
11212;BME280;5663;50.864;12.096;2022-11-12T04:05:14;101021.78;;;5.74;77.07
11212;BME280;5663;50.864;12.096;2022-11-12T04:08:02;101024.38;;;5.72;77.46
11212;BME280;5663;50.864;12.096;2022-11-12T04:10:48;101020.94;;;5.70;77.38
11212;BME280;5663;50.864;12.096;2022-11-12T04:13:16;100990.06;;;5.49;77.25
11212;BME280;5663;50.864;12.096;2022-11-12T04:15:58;100984.94;;;5.41;76.98
11212;BME280;5663;50.864;12.096;2022-11-12T04:18:45;101022.69;;;5.63;77.00
11212;BME280;5663;50.864;12.096;2022-11-12T04:21:32;101018.38;;;5.62;76.98
11212;BME280;5663;50.864;12.096;2022-11-12T04:24:23;101030.44;;;5.62;76.74
11212;BME280;5663;50.864;12.096;2022-11-12T04:27:10;101032.16;;;5.60;77.00
11212;BME280;5663;50.864;12.096;2022-11-12T04:29:39;101001.25;;;5.44;77.02
11212;BME280;5663;50.864;12.096;2022-11-12T04:32:24;101025.31;;;5.53;76.52
11212;BME280;5663;50.864;12.096;2022-11-12T04:34:52;101024.47;;;5.48;76.99
11212;BME280;5663;50.864;12.096;2022-11-12T04:37:20;101012.44;;;5.37;77.05
11212;BME280;5663;50.864;12.096;2022-11-12T04:39:50;101034.78;;;5.44;77.29
11212;BME280;5663;50.864;12.096;2022-11-12T04:42:19;101033.09;;;5.43;77.23
11212;BME280;5663;50.864;12.096;2022-11-12T04:45:05;101035.66;;;5.42;76.89
11212;BME280;5663;50.864;12.096;2022-11-12T04:47:35;101040.81;;;5.40;77.10
11212;BME280;5663;50.864;12.096;2022-11-12T04:50:05;101044.28;;;5.39;77.24
11212;BME280;5663;50.864;12.096;2022-11-12T04:52:33;101004.78;;;5.16;77.31
11212;BME280;5663;50.864;12.096;2022-11-12T04:55:03;101049.44;;;5.36;76.79
11212;BME280;5663;50.864;12.096;2022-11-12T04:57:31;101015.94;;;5.21;76.91
11212;BME280;5663;50.864;12.096;2022-11-12T04:59:58;101037.41;;;5.32;77.00
11212;BME280;5663;50.864;12.096;2022-11-12T05:02:26;101043.47;;;5.27;76.91
11212;BME280;5663;50.864;12.096;2022-11-12T05:04:54;101042.56;;;5.26;76.84
11212;BME280;5663;50.864;12.096;2022-11-12T05:07:22;101051.19;;;5.25;76.83
11212;BME280;5663;50.864;12.096;2022-11-12T05:09:49;100975.63;;;4.80;77.17
11212;BME280;5663;50.864;12.096;2022-11-12T05:12:19;101046.03;;;5.25;77.10
11212;BME280;5663;50.864;12.096;2022-11-12T05:14:47;101006.53;;;5.00;76.70
11212;BME280;5663;50.864;12.096;2022-11-12T05:17:14;101028.88;;;5.12;76.95
11212;BME280;5663;50.864;12.096;2022-11-12T05:19:42;101046.91;;;5.19;76.81
11212;BME280;5663;50.864;12.096;2022-11-12T05:22:10;101049.47;;;5.21;76.89
11212;BME280;5663;50.864;12.096;2022-11-12T05:24:41;101040.03;;;5.20;77.22
11212;BME280;5663;50.864;12.096;2022-11-12T05:27:12;101003.09;;;4.93;76.91
11212;BME280;5663;50.864;12.096;2022-11-12T05:29:42;101046.91;;;5.19;76.98
11212;BME280;5663;50.864;12.096;2022-11-12T05:32:11;101051.19;;;5.17;76.70
11212;BME280;5663;50.864;12.096;2022-11-12T05:34:39;101031.47;;;5.00;76.90
11212;BME280;5663;50.864;12.096;2022-11-12T05:37:11;101059.81;;;5.12;77.21
11212;BME280;5663;50.864;12.096;2022-11-12T05:39:40;101051.22;;;5.08;77.11
11212;BME280;5663;50.864;12.096;2022-11-12T05:42:08;101058.94;;;5.10;77.26
11212;BME280;5663;50.864;12.096;2022-11-12T05:44:36;101059.81;;;5.09;76.96
11212;BME280;5663;50.864;12.096;2022-11-12T05:47:05;101060.69;;;5.08;76.76
11212;BME280;5663;50.864;12.096;2022-11-12T05:49:33;101058.09;;;5.08;76.98
11212;BME280;5663;50.864;12.096;2022-11-12T05:52:01;101060.66;;;5.05;76.68
11212;BME280;5663;50.864;12.096;2022-11-12T05:54:29;101056.38;;;4.96;76.52
11212;BME280;5663;50.864;12.096;2022-11-12T05:56:59;101064.97;;;4.97;76.64
11212;BME280;5663;50.864;12.096;2022-11-12T05:59:27;101063.25;;;4.92;76.63
11212;BME280;5663;50.864;12.096;2022-11-12T06:01:55;101047.78;;;4.77;76.77
11212;BME280;5663;50.864;12.096;2022-11-12T06:04:25;101068.41;;;4.89;76.52
11212;BME280;5663;50.864;12.096;2022-11-12T06:06:53;101078.72;;;4.86;76.60
11212;BME280;5663;50.864;12.096;2022-11-12T06:09:20;101077.00;;;4.82;76.90
11212;BME280;5663;50.864;12.096;2022-11-12T06:11:48;101073.56;;;4.80;76.46
11212;BME280;5663;50.864;12.096;2022-11-12T06:14:15;101070.13;;;4.78;76.87
11212;BME280;5663;50.864;12.096;2022-11-12T06:16:44;101070.16;;;4.75;76.96
11212;BME280;5663;50.864;12.096;2022-11-12T06:19:12;101060.66;;;4.74;76.56
11212;BME280;5663;50.864;12.096;2022-11-12T06:21:41;101068.41;;;4.74;76.67
11212;BME280;5663;50.864;12.096;2022-11-12T06:24:09;101066.69;;;4.73;76.86
11212;BME280;5663;50.864;12.096;2022-11-12T06:26:37;101064.97;;;4.69;76.63
11212;BME280;5663;50.864;12.096;2022-11-12T06:29:04;101071.84;;;4.70;77.04
11212;BME280;5663;50.864;12.096;2022-11-12T06:31:32;101058.13;;;4.68;77.02
11212;BME280;5663;50.864;12.096;2022-11-12T06:34:00;101059.81;;;4.66;77.19
11212;BME280;5663;50.864;12.096;2022-11-12T06:36:28;101059.81;;;4.66;77.27
11212;BME280;5663;50.864;12.096;2022-11-12T06:38:57;101064.13;;;4.67;76.70
11212;BME280;5663;50.864;12.096;2022-11-12T06:41:25;100754.16;;;2.81;76.69
11212;BME280;5663;50.864;12.096;2022-11-12T06:43:53;101046.94;;;4.55;76.96
11212;BME280;5663;50.864;12.096;2022-11-12T06:46:20;101070.13;;;4.69;77.34
11212;BME280;5663;50.864;12.096;2022-11-12T06:48:48;101069.28;;;4.67;77.58
11212;BME280;5663;50.864;12.096;2022-11-12T06:51:18;101044.34;;;4.54;77.06
11212;BME280;5663;50.864;12.096;2022-11-12T06:53:47;101072.72;;;4.72;76.90
11212;BME280;5663;50.864;12.096;2022-11-12T06:56:18;101066.69;;;4.76;77.61
11212;BME280;5663;50.864;12.096;2022-11-12T06:58:46;101042.63;;;4.62;77.55
11212;BME280;5663;50.864;12.096;2022-11-12T07:01:15;101056.41;;;4.76;77.25
11212;BME280;5663;50.864;12.096;2022-11-12T07:03:43;101070.16;;;4.87;77.58
11212;BME280;5663;50.864;12.096;2022-11-12T07:06:13;101070.13;;;4.90;77.57
11212;BME280;5663;50.864;12.096;2022-11-12T07:08:46;101070.16;;;4.95;77.85
11212;BME280;5663;50.864;12.096;2022-11-12T07:11:15;101064.97;;;5.03;77.42
11212;BME280;5663;50.864;12.096;2022-11-12T07:13:44;101065.81;;;5.09;77.65
11212;BME280;5663;50.864;12.096;2022-11-12T07:16:14;101062.41;;;5.15;77.40
11212;BME280;5663;50.864;12.096;2022-11-12T07:18:44;101067.53;;;5.19;77.69
11212;BME280;5663;50.864;12.096;2022-11-12T07:21:16;101034.03;;;5.09;77.72
11212;BME280;5663;50.864;12.096;2022-11-12T07:23:45;101030.56;;;5.13;77.52
11212;BME280;5663;50.864;12.096;2022-11-12T07:26:15;101081.25;;;5.40;78.23
11212;BME280;5663;50.864;12.096;2022-11-12T07:28:44;101071.78;;;5.47;78.03
11212;BME280;5663;50.864;12.096;2022-11-12T07:31:13;101072.59;;;5.56;78.02
11212;BME280;5663;50.864;12.096;2022-11-12T07:33:43;101075.16;;;5.64;77.81
11212;BME280;5663;50.864;12.096;2022-11-12T07:36:12;101062.22;;;5.73;77.69
11212;BME280;5663;50.864;12.096;2022-11-12T07:38:42;101043.31;;;5.65;77.87
11212;BME280;5663;50.864;12.096;2022-11-12T07:41:11;101061.28;;;5.86;77.70
11212;BME280;5663;50.864;12.096;2022-11-12T07:43:40;101070.78;;;5.93;78.14
11212;BME280;5663;50.864;12.096;2022-11-12T07:46:14;101069.88;;;6.01;78.00
11212;BME280;5663;50.864;12.096;2022-11-12T07:48:42;101070.72;;;6.10;78.12
11212;BME280;5663;50.864;12.096;2022-11-12T07:51:12;101078.41;;;6.18;78.15
11212;BME280;5663;50.864;12.096;2022-11-12T07:53:41;101071.47;;;6.26;78.49
11212;BME280;5663;50.864;12.096;2022-11-12T07:56:11;101074.88;;;6.36;78.52
11212;BME280;5663;50.864;12.096;2022-11-12T07:58:39;101071.34;;;6.45;78.91
11212;BME280;5663;50.864;12.096;2022-11-12T08:01:07;101071.28;;;6.54;79.00
11212;BME280;5663;50.864;12.096;2022-11-12T08:03:37;101065.19;;;6.67;79.14
11212;BME280;5663;50.864;12.096;2022-11-12T08:06:05;101073.69;;;6.80;79.35
11212;BME280;5663;50.864;12.096;2022-11-12T08:08:34;101065.84;;;6.90;79.27
11212;BME280;5663;50.864;12.096;2022-11-12T08:11:01;101065.72;;;7.04;79.43
11212;BME280;5663;50.864;12.096;2022-11-12T08:13:29;101062.16;;;7.16;79.77
11212;BME280;5663;50.864;12.096;2022-11-12T08:15:57;101062.91;;;7.29;79.76
11212;BME280;5663;50.864;12.096;2022-11-12T08:18:26;101056.75;;;7.40;79.84
11212;BME280;5663;50.864;12.096;2022-11-12T08:21:00;101048.06;;;7.45;80.40
11212;BME280;5663;50.864;12.096;2022-11-12T08:23:28;101063.34;;;7.68;80.95
11212;BME280;5663;50.864;12.096;2022-11-12T08:26:00;101055.44;;;7.80;80.55
11212;BME280;5663;50.864;12.096;2022-11-12T08:28:29;101061.28;;;7.96;80.72
11212;BME280;5663;50.864;12.096;2022-11-12T08:31:01;101058.53;;;8.08;81.52
11212;BME280;5663;50.864;12.096;2022-11-12T08:33:32;101060.91;;;8.23;81.52
11212;BME280;5663;50.864;12.096;2022-11-12T08:36:03;101040.13;;;8.26;81.43
11212;BME280;5663;50.864;12.096;2022-11-12T08:38:31;101059.69;;;8.49;81.69
11212;BME280;5663;50.864;12.096;2022-11-12T08:40:59;101056.91;;;8.61;81.82
11212;BME280;5663;50.864;12.096;2022-11-12T08:43:27;101058.50;;;8.71;82.43
11212;BME280;5663;50.864;12.096;2022-11-12T08:45:58;101044.47;;;8.83;82.54
11212;BME280;5663;50.864;12.096;2022-11-12T08:48:30;101008.34;;;8.71;82.35
11212;BME280;5663;50.864;12.096;2022-11-12T08:51:03;101021.03;;;8.87;82.61
11212;BME280;5663;50.864;12.096;2022-11-12T08:53:31;101037.09;;;9.08;82.78
11212;BME280;5663;50.864;12.096;2022-11-12T08:55:59;101041.13;;;9.26;82.55
11212;BME280;5663;50.864;12.096;2022-11-12T08:58:27;101040.09;;;9.34;82.63
11212;BME280;5663;50.864;12.096;2022-11-12T09:00:55;101050.09;;;9.53;82.54
11212;BME280;5663;50.864;12.096;2022-11-12T09:03:24;101052.44;;;9.67;82.58
11212;BME280;5663;50.864;12.096;2022-11-12T09:05:52;101049.56;;;9.80;82.44
11212;BME280;5663;50.864;12.096;2022-11-12T09:08:23;101053.59;;;9.95;82.48
11212;BME280;5663;50.864;12.096;2022-11-12T09:10:51;101050.66;;;10.09;82.22
11212;BME280;5663;50.864;12.096;2022-11-12T09:13:19;101052.97;;;10.23;82.26
11212;BME280;5663;50.864;12.096;2022-11-12T09:15:47;101053.59;;;10.35;81.87
11212;BME280;5663;50.864;12.096;2022-11-12T09:18:17;101049.81;;;10.49;81.42
11212;BME280;5663;50.864;12.096;2022-11-12T09:20:45;101047.75;;;10.63;81.20
11212;BME280;5663;50.864;12.096;2022-11-12T09:23:14;101050.00;;;10.77;80.88
11212;BME280;5663;50.864;12.096;2022-11-12T09:25:44;101051.44;;;10.89;80.53
11212;BME280;5663;50.864;12.096;2022-11-12T09:28:13;101050.25;;;11.02;80.35
11212;BME280;5663;50.864;12.096;2022-11-12T09:30:42;101045.63;;;11.13;79.82
11212;BME280;5663;50.864;12.096;2022-11-12T09:33:12;101029.09;;;11.14;79.36
11212;BME280;5663;50.864;12.096;2022-11-12T09:35:41;101050.97;;;11.40;78.96
11212;BME280;5663;50.864;12.096;2022-11-12T09:38:10;101048.09;;;11.50;78.40
11212;BME280;5663;50.864;12.096;2022-11-12T09:40:48;101052.09;;;11.62;78.01
11212;BME280;5663;50.864;12.096;2022-11-12T09:43:24;101044.91;;;11.70;78.02
11212;BME280;5663;50.864;12.096;2022-11-12T09:46:05;101044.53;;;11.84;77.81
11212;BME280;5663;50.864;12.096;2022-11-12T09:48:39;101053.81;;;11.94;77.51
11212;BME280;5663;50.864;12.096;2022-11-12T09:51:12;101056.97;;;12.05;77.50
11212;BME280;5663;50.864;12.096;2022-11-12T09:53:48;101048.78;;;12.16;76.85
11212;BME280;5663;50.864;12.096;2022-11-12T09:56:21;101015.09;;;12.10;76.57
11212;BME280;5663;50.864;12.096;2022-11-12T09:58:49;101041.31;;;12.33;76.54
11212;BME280;5663;50.864;12.096;2022-11-12T10:01:22;101026.69;;;12.28;75.91
11212;BME280;5663;50.864;12.096;2022-11-12T10:03:57;101010.97;;;12.31;74.54
11212;BME280;5663;50.864;12.096;2022-11-12T10:06:34;101026.97;;;12.47;73.84
11212;BME280;5663;50.864;12.096;2022-11-12T10:09:07;101036.00;;;12.65;73.75
11212;BME280;5663;50.864;12.096;2022-11-12T10:11:55;101040.03;;;12.73;73.59
11212;BME280;5663;50.864;12.096;2022-11-12T10:14:58;101036.31;;;12.80;72.92
11212;BME280;5663;50.864;12.096;2022-11-12T10:17:53;101041.25;;;12.90;72.92
11212;BME280;5663;50.864;12.096;2022-11-12T10:20:25;101034.09;;;12.95;72.81
11212;BME280;5663;50.864;12.096;2022-11-12T10:23:09;101004.03;;;12.83;72.63
11212;BME280;5663;50.864;12.096;2022-11-12T10:25:44;101007.28;;;12.90;72.78
11212;BME280;5663;50.864;12.096;2022-11-12T10:28:26;101021.53;;;13.06;71.99
11212;BME280;5663;50.864;12.096;2022-11-12T10:30:57;101008.56;;;13.03;71.51
11212;BME280;5663;50.864;12.096;2022-11-12T10:33:30;100998.94;;;13.05;71.52
11212;BME280;5663;50.864;12.096;2022-11-12T10:36:10;100984.09;;;13.05;71.56
11212;BME280;5663;50.864;12.096;2022-11-12T10:38:43;101005.22;;;13.24;70.34
11212;BME280;5663;50.864;12.096;2022-11-12T10:41:23;101000.00;;;13.24;69.01
11212;BME280;5663;50.864;12.096;2022-11-12T10:43:59;100967.25;;;13.14;68.55
11212;BME280;5663;50.864;12.096;2022-11-12T10:46:28;101003.72;;;13.42;68.76
11212;BME280;5663;50.864;12.096;2022-11-12T10:49:00;100993.91;;;13.49;68.05
11212;BME280;5663;50.864;12.096;2022-11-12T10:51:30;100996.25;;;13.57;68.25
11212;BME280;5663;50.864;12.096;2022-11-12T10:53:59;100996.84;;;13.63;67.84
11212;BME280;5663;50.864;12.096;2022-11-12T10:56:45;100993.09;;;13.70;67.78
11212;BME280;5663;50.864;12.096;2022-11-12T10:59:17;100988.50;;;13.77;68.16
11212;BME280;5663;50.864;12.096;2022-11-12T11:01:52;100984.00;;;13.80;67.91
11212;BME280;5663;50.864;12.096;2022-11-12T11:04:30;100986.19;;;13.91;67.47
11212;BME280;5663;50.864;12.096;2022-11-12T11:07:02;100989.44;;;13.98;67.14
11212;BME280;5663;50.864;12.096;2022-11-12T11:09:31;100980.53;;;14.02;66.72
11212;BME280;5663;50.864;12.096;2022-11-12T11:12:00;100981.94;;;14.11;66.21
11212;BME280;5663;50.864;12.096;2022-11-12T11:14:32;100985.94;;;14.19;65.47
11212;BME280;5663;50.864;12.096;2022-11-12T11:17:14;100978.66;;;14.27;65.12
11212;BME280;5663;50.864;12.096;2022-11-12T11:19:43;100990.56;;;14.35;64.68
11212;BME280;5663;50.864;12.096;2022-11-12T11:22:29;100942.38;;;14.18;64.10
11212;BME280;5663;50.864;12.096;2022-11-12T11:25:13;100986.81;;;14.42;63.88
11212;BME280;5663;50.864;12.096;2022-11-12T11:27:53;100986.69;;;14.45;63.87
11212;BME280;5663;50.864;12.096;2022-11-12T11:30:27;100978.75;;;14.46;63.57
11212;BME280;5663;50.864;12.096;2022-11-12T11:36:08;100972.91;;;14.40;64.07
11212;BME280;5663;50.864;12.096;2022-11-12T11:38:51;100983.91;;;14.49;63.70
11212;BME280;5663;50.864;12.096;2022-11-12T11:44:17;100975.84;;;14.54;64.18
11212;BME280;5663;50.864;12.096;2022-11-12T11:46:57;100980.16;;;14.55;63.58
11212;BME280;5663;50.864;12.096;2022-11-12T11:49:56;100967.75;;;14.60;62.80
11212;BME280;5663;50.864;12.096;2022-11-12T11:52:40;100971.03;;;14.65;63.88
11212;BME280;5663;50.864;12.096;2022-11-12T11:55:17;100970.91;;;14.68;63.72
11212;BME280;5663;50.864;12.096;2022-11-12T11:57:54;100970.63;;;14.74;64.07
11212;BME280;5663;50.864;12.096;2022-11-12T12:00:29;100963.50;;;14.78;64.73
11212;BME280;5663;50.864;12.096;2022-11-12T12:03:16;100971.16;;;14.83;64.70
11212;BME280;5663;50.864;12.096;2022-11-12T12:05:51;100960.47;;;14.87;65.74
11212;BME280;5663;50.864;12.096;2022-11-12T12:08:33;100963.03;;;14.89;65.94
11212;BME280;5663;50.864;12.096;2022-11-12T12:11:07;100962.00;;;14.93;65.36
11212;BME280;5663;50.864;12.096;2022-11-12T12:13:51;100951.34;;;14.96;64.39
11212;BME280;5663;50.864;12.096;2022-11-12T12:16:30;100939.31;;;14.92;64.62
11212;BME280;5663;50.864;12.096;2022-11-12T12:19:08;100952.03;;;15.01;64.47
11212;BME280;5663;50.864;12.096;2022-11-12T12:21:41;100915.38;;;14.81;64.62
11212;BME280;5663;50.864;12.096;2022-11-12T12:24:17;100949.31;;;15.02;64.73
11212;BME280;5663;50.864;12.096;2022-11-12T12:26:50;100944.16;;;15.01;64.76
11212;BME280;5663;50.864;12.096;2022-11-12T12:29:22;100946.59;;;15.06;64.81
11212;BME280;5663;50.864;12.096;2022-11-12T12:31:59;100945.59;;;15.08;64.28
11212;BME280;5663;50.864;12.096;2022-11-12T12:34:32;100935.13;;;15.08;64.82
11212;BME280;5663;50.864;12.096;2022-11-12T12:37:06;100928.31;;;15.04;64.24
11212;BME280;5663;50.864;12.096;2022-11-12T12:39:43;100938.50;;;15.10;64.29
11212;BME280;5663;50.864;12.096;2022-11-12T12:42:20;100928.16;;;15.07;63.92
11212;BME280;5663;50.864;12.096;2022-11-12T12:44:54;100928.03;;;15.10;63.53
11212;BME280;5663;50.864;12.096;2022-11-12T12:47:35;100925.41;;;15.10;63.77
11212;BME280;5663;50.864;12.096;2022-11-12T12:50:11;100929.88;;;15.08;63.94
11212;BME280;5663;50.864;12.096;2022-11-12T12:53:02;100921.22;;;15.06;63.69
11212;BME280;5663;50.864;12.096;2022-11-12T12:55:37;100924.78;;;15.05;64.24
11212;BME280;5663;50.864;12.096;2022-11-12T12:58:17;100916.13;;;15.03;63.39
11212;BME280;5663;50.864;12.096;2022-11-12T13:01:11;100921.34;;;15.03;62.95
11212;BME280;5663;50.864;12.096;2022-11-12T13:03:56;100930.97;;;15.02;63.19
11212;BME280;5663;50.864;12.096;2022-11-12T13:06:31;100913.69;;;14.98;63.67
11212;BME280;5663;50.864;12.096;2022-11-12T13:09:03;100915.38;;;14.99;63.70
11212;BME280;5663;50.864;12.096;2022-11-12T13:11:50;100919.03;;;14.97;63.57
11212;BME280;5663;50.864;12.096;2022-11-12T13:15:06;100912.22;;;14.93;63.40
11212;BME280;5663;50.864;12.096;2022-11-12T13:17:47;100908.03;;;14.89;63.46
11212;BME280;5663;50.864;12.096;2022-11-12T13:20:37;100908.16;;;14.86;64.12
11212;BME280;5663;50.864;12.096;2022-11-12T13:29:21;100904.50;;;14.69;64.65
11212;BME280;5663;50.864;12.096;2022-11-12T13:31:49;100911.63;;;14.66;64.75
11212;BME280;5663;50.864;12.096;2022-11-12T13:34:40;100900.44;;;14.62;65.10